createdAt,value
2022-10-17T00:00:07.838Z,17.66
2022-10-17T00:01:07.873Z,17.68
2022-10-17T00:02:07.822Z,17.66
2022-10-17T00:03:07.840Z,17.66
2022-10-17T00:04:07.790Z,17.66
2022-10-17T00:05:07.792Z,17.66
2022-10-17T00:06:07.811Z,17.66
2022-10-17T00:07:07.769Z,17.64
2022-10-17T00:08:07.749Z,17.64
2022-10-17T00:09:07.748Z,17.70
2022-10-17T00:10:07.743Z,17.71
2022-10-17T00:11:07.730Z,17.71
2022-10-17T00:12:07.734Z,17.72
2022-10-17T00:13:07.710Z,17.71
2022-10-17T00:14:07.693Z,17.71
2022-10-17T00:15:07.680Z,17.74
2022-10-17T00:16:07.685Z,17.74
2022-10-17T00:17:07.655Z,17.75
2022-10-17T00:18:07.642Z,17.77
2022-10-17T00:19:07.653Z,17.77
2022-10-17T00:20:07.632Z,17.79
2022-10-17T00:21:07.622Z,17.79
2022-10-17T00:22:07.623Z,17.78
2022-10-17T00:23:07.606Z,17.78
2022-10-17T00:24:07.608Z,17.79
2022-10-17T00:25:07.562Z,17.78
2022-10-17T00:26:07.596Z,17.77
2022-10-17T00:27:07.574Z,17.78
2022-10-17T00:28:07.545Z,17.78
2022-10-17T00:29:07.594Z,17.79
2022-10-17T00:30:07.510Z,17.79
2022-10-17T00:31:07.505Z,17.79
2022-10-17T00:32:07.514Z,17.79
2022-10-17T00:33:07.485Z,17.78
2022-10-17T00:34:14.761Z,17.77
2022-10-17T00:35:14.710Z,17.77
2022-10-17T00:36:07.471Z,17.75
2022-10-17T00:37:15.697Z,17.75
2022-10-17T00:38:07.437Z,17.75
2022-10-17T00:39:07.417Z,17.72
2022-10-17T00:40:07.410Z,17.75
2022-10-17T00:41:07.438Z,17.74
2022-10-17T00:42:07.391Z,17.72
2022-10-17T00:43:07.388Z,17.72
2022-10-17T00:44:07.378Z,17.71
2022-10-17T00:45:07.351Z,17.72
2022-10-17T00:46:07.352Z,17.71
2022-10-17T00:47:07.347Z,17.70
2022-10-17T00:48:07.330Z,17.66
2022-10-17T00:49:07.299Z,17.64
2022-10-17T00:50:07.307Z,17.66
2022-10-17T00:51:07.310Z,17.64
2022-10-17T00:52:07.278Z,17.64
2022-10-17T00:53:07.259Z,17.63
2022-10-17T00:54:07.261Z,17.62
2022-10-17T00:55:07.242Z,17.59
2022-10-17T00:56:07.233Z,17.56
2022-10-17T00:57:07.496Z,17.54
2022-10-17T00:58:07.212Z,17.54
2022-10-17T00:59:07.196Z,17.51
2022-10-17T01:00:07.181Z,17.49
2022-10-17T01:01:07.223Z,17.46
2022-10-17T01:02:07.172Z,17.44
2022-10-17T01:03:07.153Z,17.43
2022-10-17T01:04:07.134Z,17.41
2022-10-17T01:05:07.143Z,17.38
2022-10-17T01:06:07.126Z,17.38
2022-10-17T01:07:07.134Z,17.37
2022-10-17T01:08:07.108Z,17.38
2022-10-17T01:09:07.081Z,17.38
2022-10-17T01:10:07.096Z,17.43
2022-10-17T01:11:07.094Z,17.44
2022-10-17T01:12:07.045Z,17.46
2022-10-17T01:13:07.042Z,17.43
2022-10-17T01:14:07.027Z,17.43
2022-10-17T01:15:07.035Z,17.40
2022-10-17T01:16:07.027Z,17.38
2022-10-17T01:17:06.997Z,17.37
2022-10-17T01:18:06.993Z,17.38
2022-10-17T01:19:06.967Z,17.38
2022-10-17T01:20:06.983Z,17.37
2022-10-17T01:21:06.956Z,17.38
2022-10-17T01:22:06.969Z,17.37
2022-10-17T01:23:07.867Z,17.37
2022-10-17T01:24:06.916Z,17.36
2022-10-17T01:25:06.918Z,17.33
2022-10-17T01:26:06.901Z,17.34
2022-10-17T01:27:06.897Z,17.33
2022-10-17T01:28:06.878Z,17.34
2022-10-17T01:29:06.872Z,17.31
2022-10-17T01:30:06.856Z,17.31
2022-10-17T01:31:06.844Z,17.33
2022-10-17T01:32:06.858Z,17.34
2022-10-17T01:33:06.824Z,17.33
2022-10-17T01:34:06.812Z,17.33
2022-10-17T01:35:06.820Z,17.33
2022-10-17T01:36:06.807Z,17.31
2022-10-17T01:37:06.773Z,17.31
2022-10-17T01:38:06.790Z,17.31
2022-10-17T01:39:06.821Z,17.33
2022-10-17T01:40:06.745Z,17.34
2022-10-17T01:41:06.742Z,17.37
2022-10-17T01:42:06.747Z,17.36
2022-10-17T01:43:06.713Z,17.38
2022-10-17T01:44:06.697Z,17.36
2022-10-17T01:45:06.714Z,17.36
2022-10-17T01:46:06.692Z,17.36
2022-10-17T01:47:06.694Z,17.34
2022-10-17T01:48:06.662Z,17.36
2022-10-17T01:49:06.689Z,17.38
2022-10-17T01:50:06.638Z,17.40
2022-10-17T01:51:06.654Z,17.41
2022-10-17T01:52:06.642Z,17.49
2022-10-17T01:53:06.614Z,17.54
2022-10-17T01:54:06.593Z,17.56
2022-10-17T01:55:06.605Z,17.56
2022-10-17T01:56:06.595Z,17.58
2022-10-17T01:57:06.565Z,17.58
2022-10-17T01:58:06.553Z,17.62
2022-10-17T01:59:06.668Z,17.59
2022-10-17T02:00:06.534Z,17.58
2022-10-17T02:01:06.572Z,17.56
2022-10-17T02:02:06.515Z,17.58
2022-10-17T02:03:06.515Z,17.58
2022-10-17T02:04:06.484Z,17.59
2022-10-17T02:05:06.497Z,17.63
2022-10-17T02:06:06.499Z,17.66
2022-10-17T02:07:06.456Z,17.68
2022-10-17T02:08:06.436Z,17.66
2022-10-17T02:09:06.446Z,17.66
2022-10-17T02:10:06.749Z,17.66
2022-10-17T02:11:06.407Z,17.66
2022-10-17T02:12:06.406Z,17.68
2022-10-17T02:13:06.398Z,17.70
2022-10-17T02:14:06.412Z,17.68
2022-10-17T02:15:06.348Z,17.66
2022-10-17T02:16:06.413Z,17.63
2022-10-17T02:17:06.345Z,17.62
2022-10-17T02:18:06.320Z,17.62
2022-10-17T02:19:06.355Z,17.62
2022-10-17T02:20:07.038Z,17.62
2022-10-17T02:21:06.300Z,17.62
2022-10-17T02:22:06.300Z,17.63
2022-10-17T02:23:06.292Z,17.64
2022-10-17T02:24:06.261Z,17.62
2022-10-17T02:25:06.240Z,17.62
2022-10-17T02:26:06.271Z,17.58
2022-10-17T02:27:18.778Z,17.56
2022-10-17T02:28:06.251Z,17.54
2022-10-17T02:29:13.468Z,17.52
2022-10-17T02:30:06.256Z,17.49
2022-10-17T02:31:06.199Z,17.49
2022-10-17T02:32:06.183Z,17.46
2022-10-17T02:33:06.159Z,17.44
2022-10-17T02:34:06.168Z,17.43
2022-10-17T02:35:06.161Z,17.43
2022-10-17T02:36:06.168Z,17.44
2022-10-17T02:37:06.152Z,17.43
2022-10-17T02:38:06.127Z,17.44
2022-10-17T02:39:06.099Z,17.48
2022-10-17T02:40:06.150Z,17.49
2022-10-17T02:41:06.115Z,17.49
2022-10-17T02:42:06.072Z,17.46
2022-10-17T02:43:06.058Z,17.46
2022-10-17T02:44:06.069Z,17.49
2022-10-17T02:45:06.051Z,17.51
2022-10-17T02:46:06.032Z,17.52
2022-10-17T02:47:06.040Z,17.51
2022-10-17T02:48:06.017Z,17.52
2022-10-17T02:49:06.021Z,17.51
2022-10-17T02:50:06.100Z,17.49
2022-10-17T02:51:05.999Z,17.48
2022-10-17T02:52:05.972Z,17.44
2022-10-17T02:53:05.962Z,17.46
2022-10-17T02:54:05.951Z,17.44
2022-10-17T02:55:05.962Z,17.48
2022-10-17T02:56:05.924Z,17.51
2022-10-17T02:57:05.918Z,17.51
2022-10-17T02:58:05.907Z,17.51
2022-10-17T02:59:05.920Z,17.48
2022-10-17T03:00:05.883Z,17.49
2022-10-17T03:01:05.928Z,17.49
2022-10-17T03:02:05.879Z,17.51
2022-10-17T03:03:05.845Z,17.49
2022-10-17T03:04:05.887Z,17.49
2022-10-17T03:05:05.845Z,17.51
2022-10-17T03:06:05.830Z,17.52
2022-10-17T03:07:05.803Z,17.51
2022-10-17T03:08:05.795Z,17.51
2022-10-17T03:09:05.777Z,17.51
2022-10-17T03:10:05.789Z,17.51
2022-10-17T03:11:05.821Z,17.51
2022-10-17T03:12:05.758Z,17.49
2022-10-17T03:13:05.737Z,17.48
2022-10-17T03:14:05.759Z,17.46
2022-10-17T03:15:05.749Z,17.46
2022-10-17T03:16:05.708Z,17.49
2022-10-17T03:17:05.688Z,17.52
2022-10-17T03:18:05.698Z,17.51
2022-10-17T03:19:05.691Z,17.49
2022-10-17T03:20:05.724Z,17.49
2022-10-17T03:21:05.670Z,17.49
2022-10-17T03:22:05.651Z,17.48
2022-10-17T03:23:05.639Z,17.48
2022-10-17T03:24:05.632Z,17.48
2022-10-17T03:25:05.617Z,17.49
2022-10-17T03:26:05.609Z,17.52
2022-10-17T03:27:05.591Z,17.55
2022-10-17T03:28:05.585Z,17.55
2022-10-17T03:29:05.599Z,17.54
2022-10-17T03:30:05.561Z,17.51
2022-10-17T03:31:05.571Z,17.48
2022-10-17T03:32:05.541Z,17.41
2022-10-17T03:33:05.518Z,17.38
2022-10-17T03:34:05.511Z,17.40
2022-10-17T03:35:05.502Z,17.41
2022-10-17T03:36:05.499Z,17.44
2022-10-17T03:37:05.499Z,17.43
2022-10-17T03:38:05.482Z,17.46
2022-10-17T03:39:05.542Z,17.48
2022-10-17T03:40:05.461Z,17.49
2022-10-17T03:41:05.465Z,17.51
2022-10-17T03:42:05.437Z,17.49
2022-10-17T03:43:05.406Z,17.48
2022-10-17T03:44:05.404Z,17.46
2022-10-17T03:45:05.406Z,17.48
2022-10-17T03:46:05.457Z,17.46
2022-10-17T03:47:08.104Z,17.41
2022-10-17T03:48:06.374Z,17.40
2022-10-17T03:49:05.353Z,17.40
2022-10-17T03:50:05.342Z,17.37
2022-10-17T03:51:05.344Z,17.37
2022-10-17T03:52:05.327Z,17.36
2022-10-17T03:53:05.303Z,17.38
2022-10-17T03:54:05.301Z,17.37
2022-10-17T03:55:05.307Z,17.37
2022-10-17T03:56:05.315Z,17.40
2022-10-17T03:57:05.271Z,17.40
2022-10-17T03:58:05.266Z,17.38
2022-10-17T03:59:05.276Z,17.40
2022-10-17T04:00:05.227Z,17.40
2022-10-17T04:01:05.288Z,17.38
2022-10-17T04:02:05.217Z,17.34
2022-10-17T04:03:05.207Z,17.34
2022-10-17T04:04:05.199Z,17.36
2022-10-17T04:05:05.208Z,17.34
2022-10-17T04:06:05.198Z,17.36
2022-10-17T04:07:05.157Z,17.36
2022-10-17T04:08:05.155Z,17.36
2022-10-17T04:09:05.157Z,17.37
2022-10-17T04:10:05.130Z,17.37
2022-10-17T04:11:05.129Z,17.38
2022-10-17T04:12:05.112Z,17.41
2022-10-17T04:13:05.117Z,17.43
2022-10-17T04:14:05.071Z,17.48
2022-10-17T04:15:12.361Z,17.48
2022-10-17T04:16:05.050Z,17.51
2022-10-17T04:17:05.060Z,17.52
2022-10-17T04:19:05.029Z,17.52
2022-10-17T04:20:05.032Z,17.56
2022-10-17T04:21:05.044Z,17.56
2022-10-17T04:22:04.992Z,17.54
2022-10-17T04:23:04.994Z,17.52
2022-10-17T04:24:04.992Z,17.51
2022-10-17T04:25:04.972Z,17.51
2022-10-17T04:26:04.982Z,17.48
2022-10-17T04:27:04.999Z,17.44
2022-10-17T04:28:04.934Z,17.43
2022-10-17T04:29:04.924Z,17.40
2022-10-17T04:30:04.953Z,17.37
2022-10-17T04:31:04.914Z,17.38
2022-10-17T04:32:05.150Z,17.37
2022-10-17T04:33:04.879Z,17.34
2022-10-17T04:34:04.885Z,17.33
2022-10-17T04:35:04.868Z,17.33
2022-10-17T04:36:04.853Z,17.30
2022-10-17T04:37:04.845Z,17.28
2022-10-17T04:38:04.864Z,17.26
2022-10-17T04:39:04.837Z,17.26
2022-10-17T04:40:04.846Z,17.25
2022-10-17T04:41:04.805Z,17.22
2022-10-17T04:42:04.776Z,17.21
2022-10-17T04:43:04.768Z,17.18
2022-10-17T04:44:04.763Z,17.15
2022-10-17T04:45:04.792Z,17.16
2022-10-17T04:46:04.746Z,17.15
2022-10-17T04:47:04.728Z,17.14
2022-10-17T04:48:04.736Z,17.14
2022-10-17T04:49:04.700Z,17.12
2022-10-17T04:50:04.713Z,17.12
2022-10-17T04:51:04.689Z,17.15
2022-10-17T04:52:04.678Z,17.19
2022-10-17T04:53:04.657Z,17.23
2022-10-17T04:54:04.649Z,17.22
2022-10-17T04:55:04.671Z,17.25
2022-10-17T04:56:04.623Z,17.22
2022-10-17T04:57:04.620Z,17.22
2022-10-17T04:58:04.612Z,17.15
2022-10-17T04:59:04.607Z,17.14
2022-10-17T05:00:04.673Z,17.11
2022-10-17T05:01:04.626Z,17.12
2022-10-17T05:02:04.570Z,17.12
2022-10-17T05:03:04.575Z,17.11
2022-10-17T05:04:04.550Z,17.11
2022-10-17T05:05:04.553Z,17.11
2022-10-17T05:06:04.519Z,17.16
2022-10-17T05:07:04.524Z,17.18
2022-10-17T05:08:04.512Z,17.18
2022-10-17T05:09:04.481Z,17.18
2022-10-17T05:10:04.508Z,17.18
2022-10-17T05:11:04.475Z,17.16
2022-10-17T05:12:06.721Z,17.15
2022-10-17T05:13:05.458Z,17.12
2022-10-17T05:14:04.472Z,17.07
2022-10-17T05:15:04.453Z,17.07
2022-10-17T05:16:04.406Z,17.08
2022-10-17T05:17:04.423Z,17.08
2022-10-17T05:18:04.414Z,17.06
2022-10-17T05:19:04.383Z,17.06
2022-10-17T05:20:04.414Z,17.04
2022-10-17T05:21:04.366Z,17.04
2022-10-17T05:22:04.360Z,17.03
2022-10-17T05:23:04.338Z,17.01
2022-10-17T05:24:04.336Z,17.03
2022-10-17T05:25:04.356Z,17.06
2022-10-17T05:26:04.317Z,17.14
2022-10-17T05:27:04.303Z,17.18
2022-10-17T05:28:04.307Z,17.16
2022-10-17T05:29:05.507Z,17.16
2022-10-17T05:30:04.276Z,17.16
2022-10-17T05:31:04.265Z,17.18
2022-10-17T05:32:04.258Z,17.21
2022-10-17T05:33:04.227Z,17.22
2022-10-17T05:34:04.248Z,17.25
2022-10-17T05:35:04.236Z,17.25
2022-10-17T05:36:04.196Z,17.22
2022-10-17T05:37:04.199Z,17.19
2022-10-17T05:38:04.203Z,17.16
2022-10-17T05:39:04.177Z,17.14
2022-10-17T05:40:04.164Z,17.12
2022-10-17T05:41:04.176Z,17.11
2022-10-17T05:42:04.144Z,17.07
2022-10-17T05:43:04.143Z,17.04
2022-10-17T05:44:05.623Z,17.04
2022-10-17T05:45:04.120Z,17.03
2022-10-17T05:46:04.121Z,17.01
2022-10-17T05:47:04.080Z,16.98
2022-10-17T05:48:04.080Z,16.98
2022-10-17T05:49:14.664Z,16.94
2022-10-17T05:50:05.054Z,16.91
2022-10-17T05:51:04.060Z,16.88
2022-10-17T05:52:04.051Z,16.82
2022-10-17T05:53:04.016Z,16.78
2022-10-17T05:54:04.011Z,16.75
2022-10-17T05:55:04.030Z,16.75
2022-10-17T05:56:03.994Z,16.75
2022-10-17T05:57:04.000Z,16.71
2022-10-17T05:58:03.962Z,16.67
2022-10-17T05:59:03.960Z,16.63
2022-10-17T06:00:03.952Z,16.60
2022-10-17T06:01:13.477Z,16.58
2022-10-17T06:02:11.278Z,16.57
2022-10-17T06:03:11.163Z,16.56
2022-10-17T06:04:11.157Z,16.56
2022-10-17T06:05:12.144Z,16.57
2022-10-17T06:06:12.133Z,16.53
2022-10-17T06:07:03.855Z,16.52
2022-10-17T06:08:03.843Z,16.50
2022-10-17T06:09:03.841Z,16.48
2022-10-17T06:10:03.841Z,16.48
2022-10-17T06:11:06.144Z,16.45
2022-10-17T06:12:04.818Z,16.42
2022-10-17T06:13:03.806Z,16.41
2022-10-17T06:14:03.792Z,16.38
2022-10-17T06:15:04.036Z,16.35
2022-10-17T06:16:03.796Z,16.34
2022-10-17T06:17:03.752Z,16.34
2022-10-17T06:18:03.739Z,16.33
2022-10-17T06:19:03.754Z,16.31
2022-10-17T06:20:03.744Z,16.31
2022-10-17T06:21:03.752Z,16.34
2022-10-17T06:22:03.725Z,16.34
2022-10-17T06:23:03.706Z,16.35
2022-10-17T06:24:03.679Z,16.39
2022-10-17T06:25:03.667Z,16.48
2022-10-17T06:26:03.717Z,16.49
2022-10-17T06:27:05.853Z,16.49
2022-10-17T06:28:04.904Z,16.50
2022-10-17T06:29:03.681Z,16.50
2022-10-17T06:30:03.657Z,16.50
2022-10-17T06:31:03.618Z,16.49
2022-10-17T06:32:03.595Z,16.48
2022-10-17T06:33:03.590Z,16.49
2022-10-17T06:34:03.578Z,16.49
2022-10-17T06:35:03.575Z,16.52
2022-10-17T06:36:03.556Z,16.52
2022-10-17T06:37:03.560Z,16.56
2022-10-17T06:38:03.549Z,16.56
2022-10-17T06:39:03.533Z,16.57
2022-10-17T06:40:03.539Z,16.57
2022-10-17T06:41:03.499Z,16.53
2022-10-17T06:42:03.494Z,16.53
2022-10-17T06:43:03.488Z,16.50
2022-10-17T06:44:03.467Z,16.53
2022-10-17T06:45:03.475Z,16.50
2022-10-17T06:46:03.469Z,16.52
2022-10-17T06:47:03.459Z,16.52
2022-10-17T06:48:03.432Z,16.56
2022-10-17T06:49:07.451Z,16.57
2022-10-17T06:50:03.420Z,16.60
2022-10-17T06:51:03.384Z,16.57
2022-10-17T06:52:03.475Z,16.61
2022-10-17T06:53:03.376Z,16.64
2022-10-17T06:54:03.376Z,16.64
2022-10-17T06:56:03.382Z,16.70
2022-10-17T06:57:03.322Z,16.73
2022-10-17T06:58:03.302Z,16.76
2022-10-17T06:59:03.347Z,16.79
2022-10-17T07:00:03.302Z,16.81
2022-10-17T07:01:03.350Z,16.85
2022-10-17T07:02:03.390Z,16.88
2022-10-17T07:03:04.284Z,16.89
2022-10-17T07:04:03.254Z,16.96
2022-10-17T07:05:03.262Z,17.04
2022-10-17T07:06:03.243Z,17.14
2022-10-17T07:07:03.229Z,17.19
2022-10-17T07:08:03.214Z,17.25
2022-10-17T07:09:03.217Z,17.30
2022-10-17T07:10:03.214Z,17.34
2022-10-17T07:11:03.214Z,17.37
2022-10-17T07:12:03.303Z,17.41
2022-10-17T07:13:03.185Z,17.44
2022-10-17T07:14:03.164Z,17.51
2022-10-17T07:15:03.222Z,17.55
2022-10-17T07:16:03.179Z,17.62
2022-10-17T07:17:03.105Z,17.64
2022-10-17T07:18:03.095Z,17.68
2022-10-17T07:19:03.100Z,17.71
2022-10-17T07:20:03.107Z,17.75
2022-10-17T07:21:03.067Z,17.78
2022-10-17T07:22:03.158Z,17.82
2022-10-17T07:23:03.043Z,17.82
2022-10-17T07:24:03.078Z,17.82
2022-10-17T07:25:03.035Z,17.82
2022-10-17T07:26:03.006Z,17.82
2022-10-17T07:27:02.983Z,17.82
2022-10-17T07:28:03.015Z,17.79
2022-10-17T07:29:03.697Z,17.79
2022-10-17T07:30:02.966Z,17.78
2022-10-17T07:31:02.931Z,17.81
2022-10-17T07:32:03.008Z,17.81
2022-10-17T07:33:03.278Z,17.82
2022-10-17T07:34:02.911Z,17.84
2022-10-17T07:35:02.901Z,17.84
2022-10-17T07:36:02.860Z,17.81
2022-10-17T07:37:02.863Z,17.81
2022-10-17T07:38:02.850Z,17.81
2022-10-17T07:39:02.842Z,17.81
2022-10-17T07:40:02.852Z,17.78
2022-10-17T07:41:02.842Z,17.77
2022-10-17T07:42:02.840Z,17.77
2022-10-17T07:43:02.981Z,17.75
2022-10-17T07:44:02.796Z,17.77
2022-10-17T07:45:02.799Z,17.77
2022-10-17T07:46:02.761Z,17.77
2022-10-17T07:47:02.741Z,17.78
2022-10-17T07:48:10.997Z,17.78
2022-10-17T07:49:11.036Z,17.78
2022-10-17T07:50:09.983Z,17.81
2022-10-17T07:51:10.949Z,17.79
2022-10-17T07:52:10.952Z,17.79
2022-10-17T07:53:14.879Z,17.81
2022-10-17T07:54:10.944Z,17.82
2022-10-17T07:55:10.942Z,17.86
2022-10-17T07:56:10.758Z,17.90
2022-10-17T07:57:02.637Z,17.93
2022-10-17T07:58:02.618Z,17.97
2022-10-17T07:59:05.203Z,17.99
2022-10-17T08:00:03.643Z,18.00
2022-10-17T08:02:02.570Z,18.02
2022-10-17T08:03:02.709Z,18.05
2022-10-17T08:04:02.573Z,18.11
2022-10-17T08:05:02.558Z,18.14
2022-10-17T08:06:02.572Z,18.17
2022-10-17T08:07:18.383Z,18.20
2022-10-17T08:08:03.521Z,18.20
2022-10-17T08:09:02.500Z,18.25
2022-10-17T08:10:02.605Z,18.27
2022-10-17T08:11:02.620Z,18.32
2022-10-17T08:12:02.546Z,18.36
2022-10-17T08:13:02.532Z,18.37
2022-10-17T08:14:02.742Z,18.44
2022-10-17T08:15:02.434Z,18.47
2022-10-17T08:16:02.463Z,18.50
2022-10-17T08:17:02.401Z,18.57
2022-10-17T08:18:02.397Z,18.62
2022-10-17T08:19:02.683Z,18.67
2022-10-17T08:20:02.375Z,18.69
2022-10-17T08:21:02.373Z,18.72
2022-10-17T08:22:02.370Z,18.78
2022-10-17T08:23:02.344Z,18.82
2022-10-17T08:24:02.313Z,18.85
2022-10-17T08:25:02.359Z,18.91
2022-10-17T08:26:02.317Z,18.94
2022-10-17T08:27:02.285Z,19.00
2022-10-17T08:28:02.300Z,18.99
2022-10-17T08:29:02.403Z,19.02
2022-10-17T08:30:02.385Z,19.06
2022-10-17T08:31:02.286Z,19.10
2022-10-17T08:32:03.673Z,19.14
2022-10-17T08:33:02.270Z,19.18
2022-10-17T08:34:02.207Z,19.19
2022-10-17T08:35:02.197Z,19.19
2022-10-17T08:36:02.197Z,19.19
2022-10-17T08:37:02.408Z,19.14
2022-10-17T08:38:02.184Z,19.14
2022-10-17T08:39:02.186Z,19.18
2022-10-17T08:40:02.157Z,19.16
2022-10-17T08:41:02.150Z,19.19
2022-10-17T08:42:02.186Z,19.22
2022-10-17T08:43:02.168Z,19.25
2022-10-17T08:44:02.097Z,19.26
2022-10-17T08:45:02.348Z,19.28
2022-10-17T08:46:02.168Z,19.32
2022-10-17T08:47:02.061Z,19.36
2022-10-17T08:48:02.038Z,19.39
2022-10-17T08:49:02.039Z,19.40
2022-10-17T08:50:02.105Z,19.41
2022-10-17T08:51:02.031Z,19.40
2022-10-17T08:52:02.023Z,19.41
2022-10-17T08:53:02.022Z,19.40
2022-10-17T08:54:01.973Z,19.44
2022-10-17T08:55:01.963Z,19.47
2022-10-17T08:56:01.965Z,19.46
2022-10-17T08:57:01.932Z,19.43
2022-10-17T08:58:01.938Z,19.44
2022-10-17T08:59:01.920Z,19.48
2022-10-17T09:00:01.921Z,19.55
2022-10-17T09:01:01.902Z,19.58
2022-10-17T09:02:01.900Z,19.58
2022-10-17T09:03:02.667Z,19.62
2022-10-17T09:04:01.880Z,19.59
2022-10-17T09:05:01.890Z,19.54
2022-10-17T09:06:01.852Z,19.48
2022-10-17T09:07:01.830Z,19.48
2022-10-17T09:08:01.823Z,19.51
2022-10-17T09:09:02.459Z,19.54
2022-10-17T09:10:01.805Z,19.58
2022-10-17T09:11:01.804Z,19.61
2022-10-17T09:12:01.782Z,19.59
2022-10-17T09:13:07.620Z,19.59
2022-10-17T09:14:02.746Z,19.63
2022-10-17T09:15:01.729Z,19.66
2022-10-17T09:16:01.761Z,19.73
2022-10-17T09:17:01.707Z,19.77
2022-10-17T09:18:01.708Z,19.80
2022-10-17T09:19:01.736Z,19.87
2022-10-17T09:20:01.687Z,19.94
2022-10-17T09:21:01.762Z,20.03
2022-10-17T09:22:01.685Z,20.11
2022-10-17T09:23:01.712Z,20.26
2022-10-17T09:24:09.446Z,20.38
2022-10-17T09:25:02.688Z,20.51
2022-10-17T09:26:02.636Z,20.55
2022-10-17T09:27:01.648Z,20.66
2022-10-17T09:28:01.588Z,20.77
2022-10-17T09:29:01.751Z,20.89
2022-10-17T09:30:01.659Z,20.94
2022-10-17T09:31:01.585Z,21.01
2022-10-17T09:32:01.652Z,21.12
2022-10-17T09:33:01.615Z,21.14
2022-10-17T09:34:01.613Z,21.16
2022-10-17T09:35:01.649Z,21.21
2022-10-17T09:36:01.623Z,21.25
2022-10-17T09:37:01.506Z,21.29
2022-10-17T09:38:01.499Z,21.37
2022-10-17T09:39:01.482Z,21.46
2022-10-17T09:40:01.454Z,21.35
2022-10-17T09:41:01.577Z,21.32
2022-10-17T09:42:01.486Z,21.42
2022-10-17T09:43:01.450Z,21.52
2022-10-17T09:44:08.709Z,21.58
2022-10-17T09:45:08.688Z,21.52
2022-10-17T09:46:01.408Z,21.49
2022-10-17T09:47:09.687Z,21.52
2022-10-17T09:48:01.901Z,21.61
2022-10-17T09:50:01.473Z,21.58
2022-10-17T09:51:21.914Z,21.50
2022-10-17T09:52:02.323Z,21.50
2022-10-17T09:53:02.047Z,21.49
2022-10-17T09:54:01.371Z,21.54
2022-10-17T09:55:01.913Z,21.64
2022-10-17T09:56:01.312Z,21.65
2022-10-17T09:57:01.277Z,21.67
2022-10-17T09:58:01.255Z,21.71
2022-10-17T09:59:01.264Z,21.77
2022-10-17T10:00:01.335Z,21.82
2022-10-17T10:01:01.636Z,21.86
2022-10-17T10:02:01.285Z,21.83
2022-10-17T10:03:01.207Z,21.84
2022-10-17T10:04:01.196Z,21.88
2022-10-17T10:05:06.031Z,21.92
2022-10-17T10:06:02.222Z,21.94
2022-10-17T10:07:01.212Z,21.96
2022-10-17T10:08:01.166Z,22.05
2022-10-17T10:09:01.165Z,22.06
2022-10-17T10:10:01.140Z,22.00
2022-10-17T10:11:01.131Z,22.05
2022-10-17T10:12:01.157Z,22.14
2022-10-17T10:13:01.101Z,22.12
2022-10-17T10:14:01.100Z,22.17
2022-10-17T10:15:01.079Z,22.22
2022-10-17T10:16:01.071Z,22.33
2022-10-17T10:17:01.062Z,22.46
2022-10-17T10:18:01.101Z,22.55
2022-10-17T10:19:02.753Z,22.58
2022-10-17T10:20:01.024Z,22.60
2022-10-17T10:21:01.001Z,22.60
2022-10-17T10:22:01.037Z,22.52
2022-10-17T10:23:00.975Z,22.54
2022-10-17T10:24:01.011Z,22.61
2022-10-17T10:25:00.966Z,22.62
2022-10-17T10:26:01.080Z,22.60
2022-10-17T10:27:01.001Z,22.57
2022-10-17T10:28:01.665Z,22.54
2022-10-17T10:29:00.994Z,22.40
2022-10-17T10:30:00.912Z,22.30
2022-10-17T10:31:00.915Z,22.31
2022-10-17T10:32:00.876Z,22.39
2022-10-17T10:33:00.915Z,22.42
2022-10-17T10:34:00.866Z,22.46
2022-10-17T10:35:00.875Z,22.40
2022-10-17T10:36:00.857Z,22.43
2022-10-17T10:37:00.825Z,22.46
2022-10-17T10:38:00.882Z,22.51
2022-10-17T10:39:03.830Z,22.58
2022-10-17T10:40:00.795Z,22.65
2022-10-17T10:41:00.795Z,22.64
2022-10-17T10:42:00.758Z,22.61
2022-10-17T10:43:05.214Z,22.70
2022-10-17T10:44:01.744Z,22.82
2022-10-17T10:45:01.717Z,22.85
2022-10-17T10:46:00.763Z,22.86
2022-10-17T10:47:00.754Z,22.91
2022-10-17T10:48:00.712Z,22.91
2022-10-17T10:49:00.694Z,22.94
2022-10-17T10:50:00.678Z,22.90
2022-10-17T10:51:00.703Z,22.91
2022-10-17T10:52:00.638Z,22.95
2022-10-17T10:53:00.637Z,23.02
2022-10-17T10:54:00.643Z,23.05
2022-10-17T10:55:00.632Z,23.09
2022-10-17T10:56:00.650Z,23.10
2022-10-17T10:57:00.592Z,23.16
2022-10-17T10:58:00.603Z,23.12
2022-10-17T10:59:00.572Z,22.98
2022-10-17T11:00:00.571Z,23.02
2022-10-17T11:01:00.645Z,23.07
2022-10-17T11:02:00.541Z,23.13
2022-10-17T11:03:01.834Z,23.15
2022-10-17T11:04:00.533Z,23.15
2022-10-17T11:05:00.537Z,23.20
2022-10-17T11:06:00.527Z,23.17
2022-10-17T11:07:00.489Z,23.16
2022-10-17T11:08:00.504Z,23.17
2022-10-17T11:09:00.496Z,23.19
2022-10-17T11:10:00.472Z,23.22
2022-10-17T11:11:00.491Z,23.19
2022-10-17T11:12:00.423Z,23.19
2022-10-17T11:13:00.428Z,23.13
2022-10-17T11:14:01.481Z,23.05
2022-10-17T11:15:01.228Z,22.98
2022-10-17T11:16:00.411Z,22.88
2022-10-17T11:17:00.679Z,22.88
2022-10-17T11:18:00.394Z,22.88
2022-10-17T11:19:00.508Z,22.88
2022-10-17T11:20:00.347Z,22.90
2022-10-17T11:21:00.347Z,22.91
2022-10-17T11:22:00.316Z,22.86
2022-10-17T11:23:00.312Z,22.85
2022-10-17T11:24:00.308Z,22.86
2022-10-17T11:25:00.281Z,22.83
2022-10-17T11:26:00.291Z,22.88
2022-10-17T11:27:00.279Z,22.95
2022-10-17T11:28:04.713Z,23.05
2022-10-17T11:29:01.323Z,23.12
2022-10-17T11:30:00.250Z,23.12
2022-10-17T11:31:02.329Z,23.12
2022-10-17T11:32:00.225Z,23.13
2022-10-17T11:33:00.991Z,23.17
2022-10-17T11:34:00.190Z,23.12
2022-10-17T11:35:00.227Z,23.12
2022-10-17T11:36:00.173Z,23.07
2022-10-17T11:37:00.159Z,23.02
2022-10-17T11:38:08.404Z,22.95
2022-10-17T11:39:07.759Z,22.86
2022-10-17T11:40:07.408Z,22.83
2022-10-17T11:41:07.346Z,22.82
2022-10-17T11:42:08.868Z,22.67
2022-10-17T11:43:00.118Z,22.55
2022-10-17T11:44:00.055Z,22.54
2022-10-17T11:45:00.080Z,22.51
2022-10-17T11:46:00.035Z,22.51
2022-10-17T11:47:00.068Z,22.49
2022-10-17T11:48:00.039Z,22.55
2022-10-17T11:49:00.018Z,22.57
2022-10-17T11:51:59.658Z,22.60
2022-10-17T11:52:02.375Z,22.64
2022-10-17T11:53:00.296Z,22.72
2022-10-17T11:53:59.960Z,22.73
2022-10-17T11:54:59.988Z,22.77
2022-10-17T11:55:59.919Z,22.82
2022-10-17T11:56:59.938Z,22.83
2022-10-17T11:57:59.960Z,22.82
2022-10-17T11:58:59.910Z,22.85
2022-10-17T11:59:59.945Z,22.86
2022-10-17T12:00:59.893Z,22.86
2022-10-17T12:01:59.873Z,22.86
2022-10-17T12:02:59.908Z,22.88
2022-10-17T12:03:59.887Z,22.82
2022-10-17T12:05:00.168Z,22.75
2022-10-17T12:05:59.830Z,22.73
2022-10-17T12:06:59.843Z,22.72
2022-10-17T12:08:00.631Z,22.72
2022-10-17T12:08:59.829Z,22.72
2022-10-17T12:09:59.822Z,22.70
2022-10-17T12:11:02.713Z,22.70
2022-10-17T12:11:59.756Z,22.68
2022-10-17T12:12:59.789Z,22.70
2022-10-17T12:14:04.934Z,22.72
2022-10-17T12:15:00.745Z,22.70
2022-10-17T12:15:59.716Z,22.64
2022-10-17T12:16:59.707Z,22.61
2022-10-17T12:17:59.694Z,22.61
2022-10-17T12:18:59.679Z,22.58
2022-10-17T12:19:59.767Z,22.57
2022-10-17T12:20:59.740Z,22.51
2022-10-17T12:21:59.785Z,22.46
2022-10-17T12:22:59.650Z,22.45
2022-10-17T12:23:59.685Z,22.42
2022-10-17T12:24:59.897Z,22.40
2022-10-17T12:26:01.638Z,22.35
2022-10-17T12:26:59.589Z,22.33
2022-10-17T12:27:59.682Z,22.33
2022-10-17T12:28:59.622Z,22.35
2022-10-17T12:29:59.632Z,22.37
2022-10-17T12:30:59.624Z,22.40
2022-10-17T12:31:59.551Z,22.43
2022-10-17T12:33:07.828Z,22.45
2022-10-17T12:34:00.532Z,22.47
2022-10-17T12:34:59.510Z,22.52
2022-10-17T12:35:59.488Z,22.55
2022-10-17T12:36:59.492Z,22.58
2022-10-17T12:38:00.602Z,22.60
2022-10-17T12:39:00.489Z,22.60
2022-10-17T12:40:00.093Z,22.61
2022-10-17T12:40:59.624Z,22.60
2022-10-17T12:41:59.576Z,22.61
2022-10-17T12:42:59.773Z,22.61
2022-10-17T12:43:59.415Z,22.62
2022-10-17T12:45:00.459Z,22.62
2022-10-17T12:45:59.402Z,22.58
2022-10-17T12:46:59.363Z,22.57
2022-10-17T12:47:59.565Z,22.57
2022-10-17T12:48:59.553Z,22.55
2022-10-17T12:50:00.087Z,22.52
2022-10-17T12:51:17.558Z,22.51
2022-10-17T12:52:01.201Z,22.45
2022-10-17T12:52:59.772Z,22.43
2022-10-17T12:54:00.100Z,22.33
2022-10-17T12:55:11.132Z,22.27
2022-10-17T12:56:00.287Z,22.22
2022-10-17T12:56:59.882Z,22.20